sensor_id;sensor_type;location;lat;lon;timestamp;P1;durP1;ratioP1;P2;durP2;ratioP2
72891;SDS011;61032;50.782;6.818;2022-12-07T00:00:45;18.33;;;10.27;;
72891;SDS011;61032;50.782;6.818;2022-12-07T00:01:45;17.23;;;10.10;;
72891;SDS011;61032;50.782;6.818;2022-12-07T00:02:46;16.80;;;10.27;;
72891;SDS011;61032;50.782;6.818;2022-12-07T00:03:47;17.40;;;10.13;;
72891;SDS011;61032;50.782;6.818;2022-12-07T00:05:49;15.73;;;9.00;;
72891;SDS011;61032;50.782;6.818;2022-12-07T00:06:51;17.58;;;9.07;;
72891;SDS011;61032;50.782;6.818;2022-12-07T00:07:52;16.02;;;9.38;;
72891;SDS011;61032;50.782;6.818;2022-12-07T00:08:53;18.40;;;9.45;;
72891;SDS011;61032;50.782;6.818;2022-12-07T00:09:53;16.40;;;9.18;;
72891;SDS011;61032;50.782;6.818;2022-12-07T00:10:53;17.00;;;9.95;;
72891;SDS011;61032;50.782;6.818;2022-12-07T00:11:54;18.27;;;11.13;;
72891;SDS011;61032;50.782;6.818;2022-12-07T00:12:54;18.20;;;9.98;;
72891;SDS011;61032;50.782;6.818;2022-12-07T00:13:58;18.05;;;9.57;;
72891;SDS011;61032;50.782;6.818;2022-12-07T00:15:00;17.33;;;9.85;;
72891;SDS011;61032;50.782;6.818;2022-12-07T00:16:04;16.05;;;9.88;;
72891;SDS011;61032;50.782;6.818;2022-12-07T00:17:06;22.60;;;10.90;;
72891;SDS011;61032;50.782;6.818;2022-12-07T00:18:07;18.10;;;10.57;;
72891;SDS011;61032;50.782;6.818;2022-12-07T00:19:07;21.45;;;10.65;;
72891;SDS011;61032;50.782;6.818;2022-12-07T00:20:10;16.48;;;10.30;;
72891;SDS011;61032;50.782;6.818;2022-12-07T00:21:12;17.27;;;9.80;;
72891;SDS011;61032;50.782;6.818;2022-12-07T00:22:15;20.05;;;11.77;;
72891;SDS011;61032;50.782;6.818;2022-12-07T00:23:15;20.65;;;9.77;;
72891;SDS011;61032;50.782;6.818;2022-12-07T00:24:15;15.80;;;10.43;;
72891;SDS011;61032;50.782;6.818;2022-12-07T00:25:16;16.60;;;10.00;;
72891;SDS011;61032;50.782;6.818;2022-12-07T00:26:18;16.48;;;10.25;;
72891;SDS011;61032;50.782;6.818;2022-12-07T00:27:20;18.10;;;11.23;;
72891;SDS011;61032;50.782;6.818;2022-12-07T00:28:21;17.30;;;10.63;;
72891;SDS011;61032;50.782;6.818;2022-12-07T00:29:21;17.85;;;10.27;;
72891;SDS011;61032;50.782;6.818;2022-12-07T00:30:23;18.30;;;10.75;;
72891;SDS011;61032;50.782;6.818;2022-12-07T00:31:24;16.83;;;9.90;;
72891;SDS011;61032;50.782;6.818;2022-12-07T00:32:26;19.08;;;11.27;;
72891;SDS011;61032;50.782;6.818;2022-12-07T00:33:26;18.35;;;10.25;;
72891;SDS011;61032;50.782;6.818;2022-12-07T00:34:28;17.02;;;10.43;;
72891;SDS011;61032;50.782;6.818;2022-12-07T00:35:28;20.73;;;11.23;;
72891;SDS011;61032;50.782;6.818;2022-12-07T00:36:29;16.45;;;9.88;;
72891;SDS011;61032;50.782;6.818;2022-12-07T00:37:29;17.90;;;10.68;;
72891;SDS011;61032;50.782;6.818;2022-12-07T00:38:30;17.42;;;10.35;;
72891;SDS011;61032;50.782;6.818;2022-12-07T00:39:32;18.77;;;10.40;;
72891;SDS011;61032;50.782;6.818;2022-12-07T00:40:33;18.23;;;9.95;;
72891;SDS011;61032;50.782;6.818;2022-12-07T00:41:33;19.40;;;10.68;;
72891;SDS011;61032;50.782;6.818;2022-12-07T00:42:33;18.95;;;11.18;;
72891;SDS011;61032;50.782;6.818;2022-12-07T00:43:33;18.98;;;11.18;;
72891;SDS011;61032;50.782;6.818;2022-12-07T00:44:34;19.85;;;11.40;;
72891;SDS011;61032;50.782;6.818;2022-12-07T00:45:34;19.65;;;11.38;;
72891;SDS011;61032;50.782;6.818;2022-12-07T00:46:34;17.33;;;10.70;;
72891;SDS011;61032;50.782;6.818;2022-12-07T00:47:35;18.88;;;10.38;;
72891;SDS011;61032;50.782;6.818;2022-12-07T00:48:35;19.75;;;10.57;;
72891;SDS011;61032;50.782;6.818;2022-12-07T00:49:35;19.83;;;10.40;;
72891;SDS011;61032;50.782;6.818;2022-12-07T00:50:35;18.30;;;11.07;;
72891;SDS011;61032;50.782;6.818;2022-12-07T00:51:36;20.48;;;11.20;;
72891;SDS011;61032;50.782;6.818;2022-12-07T00:52:36;18.20;;;9.82;;
72891;SDS011;61032;50.782;6.818;2022-12-07T00:53:37;22.38;;;11.35;;
72891;SDS011;61032;50.782;6.818;2022-12-07T00:54:38;18.23;;;10.27;;
72891;SDS011;61032;50.782;6.818;2022-12-07T00:55:39;21.42;;;11.02;;
72891;SDS011;61032;50.782;6.818;2022-12-07T00:56:40;17.80;;;10.07;;
72891;SDS011;61032;50.782;6.818;2022-12-07T00:57:40;20.00;;;10.25;;
72891;SDS011;61032;50.782;6.818;2022-12-07T00:58:40;21.92;;;10.38;;
72891;SDS011;61032;50.782;6.818;2022-12-07T00:59:41;18.90;;;10.13;;
72891;SDS011;61032;50.782;6.818;2022-12-07T01:00:41;21.23;;;11.07;;
72891;SDS011;61032;50.782;6.818;2022-12-07T01:01:42;18.27;;;10.70;;
72891;SDS011;61032;50.782;6.818;2022-12-07T01:02:43;17.65;;;10.35;;
72891;SDS011;61032;50.782;6.818;2022-12-07T01:03:43;15.00;;;9.57;;
72891;SDS011;61032;50.782;6.818;2022-12-07T01:04:43;19.35;;;10.85;;
72891;SDS011;61032;50.782;6.818;2022-12-07T01:05:51;19.83;;;10.60;;
72891;SDS011;61032;50.782;6.818;2022-12-07T01:06:52;17.52;;;10.30;;
72891;SDS011;61032;50.782;6.818;2022-12-07T01:07:53;17.60;;;10.02;;
72891;SDS011;61032;50.782;6.818;2022-12-07T01:08:53;16.80;;;9.82;;
72891;SDS011;61032;50.782;6.818;2022-12-07T01:09:53;20.85;;;10.85;;
72891;SDS011;61032;50.782;6.818;2022-12-07T01:11:00;17.95;;;10.32;;
72891;SDS011;61032;50.782;6.818;2022-12-07T01:12:04;22.70;;;10.57;;
72891;SDS011;61032;50.782;6.818;2022-12-07T01:13:04;16.92;;;10.57;;
72891;SDS011;61032;50.782;6.818;2022-12-07T01:14:04;18.75;;;10.93;;
72891;SDS011;61032;50.782;6.818;2022-12-07T01:15:05;17.65;;;9.25;;
72891;SDS011;61032;50.782;6.818;2022-12-07T01:16:06;17.23;;;10.05;;
72891;SDS011;61032;50.782;6.818;2022-12-07T01:17:07;18.50;;;10.75;;
72891;SDS011;61032;50.782;6.818;2022-12-07T01:18:08;18.45;;;10.45;;
72891;SDS011;61032;50.782;6.818;2022-12-07T01:19:08;14.55;;;9.95;;
72891;SDS011;61032;50.782;6.818;2022-12-07T01:20:08;16.73;;;10.75;;
72891;SDS011;61032;50.782;6.818;2022-12-07T01:21:14;16.80;;;9.82;;
72891;SDS011;61032;50.782;6.818;2022-12-07T01:22:20;19.52;;;11.23;;
72891;SDS011;61032;50.782;6.818;2022-12-07T01:23:20;20.00;;;10.45;;
72891;SDS011;61032;50.782;6.818;2022-12-07T01:24:21;17.15;;;10.65;;
72891;SDS011;61032;50.782;6.818;2022-12-07T01:25:21;18.73;;;11.15;;
72891;SDS011;61032;50.782;6.818;2022-12-07T01:26:22;21.02;;;11.70;;
72891;SDS011;61032;50.782;6.818;2022-12-07T01:28:24;16.85;;;9.25;;
72891;SDS011;61032;50.782;6.818;2022-12-07T01:29:25;16.25;;;10.13;;
72891;SDS011;61032;50.782;6.818;2022-12-07T01:30:26;18.17;;;10.10;;
72891;SDS011;61032;50.782;6.818;2022-12-07T01:31:26;21.88;;;10.98;;
72891;SDS011;61032;50.782;6.818;2022-12-07T01:32:28;17.75;;;10.82;;
72891;SDS011;61032;50.782;6.818;2022-12-07T01:33:29;19.67;;;10.43;;
72891;SDS011;61032;50.782;6.818;2022-12-07T01:34:31;16.75;;;9.82;;
72891;SDS011;61032;50.782;6.818;2022-12-07T01:35:33;18.27;;;11.20;;
72891;SDS011;61032;50.782;6.818;2022-12-07T01:36:34;19.52;;;11.30;;
72891;SDS011;61032;50.782;6.818;2022-12-07T01:38:36;16.75;;;9.77;;
72891;SDS011;61032;50.782;6.818;2022-12-07T01:39:36;20.38;;;11.45;;
72891;SDS011;61032;50.782;6.818;2022-12-07T01:40:37;18.10;;;10.77;;
72891;SDS011;61032;50.782;6.818;2022-12-07T01:41:38;19.85;;;11.27;;
72891;SDS011;61032;50.782;6.818;2022-12-07T01:42:40;17.27;;;9.55;;
72891;SDS011;61032;50.782;6.818;2022-12-07T01:46:31;16.45;;;10.65;;
72891;SDS011;61032;50.782;6.818;2022-12-07T01:47:31;16.98;;;10.07;;
72891;SDS011;61032;50.782;6.818;2022-12-07T01:48:35;18.23;;;11.55;;
72891;SDS011;61032;50.782;6.818;2022-12-07T01:49:43;17.75;;;9.80;;
72891;SDS011;61032;50.782;6.818;2022-12-07T01:50:46;20.98;;;11.02;;
72891;SDS011;61032;50.782;6.818;2022-12-07T01:51:50;18.98;;;10.60;;
72891;SDS011;61032;50.782;6.818;2022-12-07T01:52:55;18.17;;;11.07;;
72891;SDS011;61032;50.782;6.818;2022-12-07T01:53:59;18.58;;;10.85;;
72891;SDS011;61032;50.782;6.818;2022-12-07T01:55:04;18.30;;;10.50;;
72891;SDS011;61032;50.782;6.818;2022-12-07T01:56:08;17.90;;;10.40;;
72891;SDS011;61032;50.782;6.818;2022-12-07T01:57:11;17.88;;;10.35;;
72891;SDS011;61032;50.782;6.818;2022-12-07T01:58:13;20.50;;;10.57;;
72891;SDS011;61032;50.782;6.818;2022-12-07T01:59:16;19.20;;;10.57;;
72891;SDS011;61032;50.782;6.818;2022-12-07T02:00:18;19.10;;;10.52;;
72891;SDS011;61032;50.782;6.818;2022-12-07T02:01:18;19.27;;;10.07;;
72891;SDS011;61032;50.782;6.818;2022-12-07T02:03:06;19.45;;;10.32;;
72891;SDS011;61032;50.782;6.818;2022-12-07T02:03:46;17.08;;;10.07;;
72891;SDS011;61032;50.782;6.818;2022-12-07T02:04:46;18.40;;;10.75;;
72891;SDS011;61032;50.782;6.818;2022-12-07T02:05:47;20.55;;;10.90;;
72891;SDS011;61032;50.782;6.818;2022-12-07T02:06:49;18.08;;;10.15;;
72891;SDS011;61032;50.782;6.818;2022-12-07T02:07:50;17.23;;;10.05;;
72891;SDS011;61032;50.782;6.818;2022-12-07T02:08:54;18.25;;;10.65;;
72891;SDS011;61032;50.782;6.818;2022-12-07T02:09:55;17.50;;;10.52;;
72891;SDS011;61032;50.782;6.818;2022-12-07T02:10:55;20.02;;;10.60;;
72891;SDS011;61032;50.782;6.818;2022-12-07T02:11:56;18.88;;;11.02;;
72891;SDS011;61032;50.782;6.818;2022-12-07T02:13:08;16.98;;;9.75;;
72891;SDS011;61032;50.782;6.818;2022-12-07T02:14:18;17.63;;;10.07;;
72891;SDS011;61032;50.782;6.818;2022-12-07T02:15:19;19.42;;;9.95;;
72891;SDS011;61032;50.782;6.818;2022-12-07T02:16:31;15.95;;;10.25;;
72891;SDS011;61032;50.782;6.818;2022-12-07T02:17:54;18.08;;;9.77;;
72891;SDS011;61032;50.782;6.818;2022-12-07T02:20:25;19.75;;;11.27;;
72891;SDS011;61032;50.782;6.818;2022-12-07T02:21:36;19.70;;;11.23;;
72891;SDS011;61032;50.782;6.818;2022-12-07T02:26:47;19.30;;;10.50;;
72891;SDS011;61032;50.782;6.818;2022-12-07T02:30:20;16.35;;;10.75;;
72891;SDS011;61032;50.782;6.818;2022-12-07T02:31:22;16.15;;;9.35;;
72891;SDS011;61032;50.782;6.818;2022-12-07T02:32:26;15.75;;;10.63;;
72891;SDS011;61032;50.782;6.818;2022-12-07T02:33:36;16.58;;;9.43;;
72891;SDS011;61032;50.782;6.818;2022-12-07T02:35:53;13.13;;;8.50;;
72891;SDS011;61032;50.782;6.818;2022-12-07T02:37:01;19.50;;;9.93;;
72891;SDS011;61032;50.782;6.818;2022-12-07T02:38:16;18.15;;;10.25;;
72891;SDS011;61032;50.782;6.818;2022-12-07T02:39:24;19.17;;;8.73;;
72891;SDS011;61032;50.782;6.818;2022-12-07T02:42:40;14.52;;;9.10;;
72891;SDS011;61032;50.782;6.818;2022-12-07T02:44:06;15.35;;;9.75;;
72891;SDS011;61032;50.782;6.818;2022-12-07T02:45:10;15.82;;;9.63;;
72891;SDS011;61032;50.782;6.818;2022-12-07T02:46:14;17.73;;;9.90;;
72891;SDS011;61032;50.782;6.818;2022-12-07T02:47:19;13.90;;;8.63;;
72891;SDS011;61032;50.782;6.818;2022-12-07T02:48:23;15.43;;;9.90;;
72891;SDS011;61032;50.782;6.818;2022-12-07T02:49:26;19.48;;;10.05;;
72891;SDS011;61032;50.782;6.818;2022-12-07T02:50:27;15.20;;;9.48;;
72891;SDS011;61032;50.782;6.818;2022-12-07T02:51:31;17.42;;;9.77;;
72891;SDS011;61032;50.782;6.818;2022-12-07T02:52:33;16.13;;;8.90;;
72891;SDS011;61032;50.782;6.818;2022-12-07T02:53:35;18.92;;;9.02;;
72891;SDS011;61032;50.782;6.818;2022-12-07T02:54:43;15.07;;;8.80;;
72891;SDS011;61032;50.782;6.818;2022-12-07T02:55:43;14.38;;;8.50;;
72891;SDS011;61032;50.782;6.818;2022-12-07T02:56:49;16.45;;;8.63;;
72891;SDS011;61032;50.782;6.818;2022-12-07T02:58:19;16.55;;;9.82;;
72891;SDS011;61032;50.782;6.818;2022-12-07T02:59:40;14.43;;;8.73;;
72891;SDS011;61032;50.782;6.818;2022-12-07T03:01:06;14.50;;;8.68;;
72891;SDS011;61032;50.782;6.818;2022-12-07T03:02:37;17.52;;;9.20;;
72891;SDS011;61032;50.782;6.818;2022-12-07T03:03:44;14.18;;;8.85;;
72891;SDS011;61032;50.782;6.818;2022-12-07T03:06:22;16.20;;;9.65;;
72891;SDS011;61032;50.782;6.818;2022-12-07T03:09:03;14.00;;;8.57;;
72891;SDS011;61032;50.782;6.818;2022-12-07T03:11:45;16.45;;;10.25;;
72891;SDS011;61032;50.782;6.818;2022-12-07T03:14:03;16.38;;;9.48;;
72891;SDS011;61032;50.782;6.818;2022-12-07T03:15:26;16.83;;;8.95;;
72891;SDS011;61032;50.782;6.818;2022-12-07T03:16:33;16.05;;;10.02;;
72891;SDS011;61032;50.782;6.818;2022-12-07T03:17:36;15.07;;;9.20;;
72891;SDS011;61032;50.782;6.818;2022-12-07T03:18:51;15.27;;;9.65;;
72891;SDS011;61032;50.782;6.818;2022-12-07T03:19:56;15.75;;;9.00;;
72891;SDS011;61032;50.782;6.818;2022-12-07T03:21:00;16.30;;;10.73;;
72891;SDS011;61032;50.782;6.818;2022-12-07T03:22:05;15.32;;;9.88;;
72891;SDS011;61032;50.782;6.818;2022-12-07T03:23:09;16.73;;;9.50;;
72891;SDS011;61032;50.782;6.818;2022-12-07T03:24:14;17.67;;;10.10;;
72891;SDS011;61032;50.782;6.818;2022-12-07T03:25:17;17.20;;;10.55;;
72891;SDS011;61032;50.782;6.818;2022-12-07T03:26:18;16.45;;;9.23;;
72891;SDS011;61032;50.782;6.818;2022-12-07T03:27:27;18.52;;;9.57;;
72891;SDS011;61032;50.782;6.818;2022-12-07T03:28:33;14.15;;;9.43;;
72891;SDS011;61032;50.782;6.818;2022-12-07T03:29:37;16.67;;;9.60;;
72891;SDS011;61032;50.782;6.818;2022-12-07T03:31:54;15.15;;;9.43;;
72891;SDS011;61032;50.782;6.818;2022-12-07T03:34:46;15.52;;;9.50;;
72891;SDS011;61032;50.782;6.818;2022-12-07T03:40:40;14.23;;;9.18;;
72891;SDS011;61032;50.782;6.818;2022-12-07T03:41:49;15.45;;;8.88;;
72891;SDS011;61032;50.782;6.818;2022-12-07T03:42:51;15.45;;;9.40;;
72891;SDS011;61032;50.782;6.818;2022-12-07T03:43:54;16.08;;;8.77;;
72891;SDS011;61032;50.782;6.818;2022-12-07T03:44:55;15.20;;;9.05;;
72891;SDS011;61032;50.782;6.818;2022-12-07T03:46:00;15.48;;;9.93;;
72891;SDS011;61032;50.782;6.818;2022-12-07T03:47:13;16.65;;;9.55;;
72891;SDS011;61032;50.782;6.818;2022-12-07T03:49:26;16.90;;;9.88;;
72891;SDS011;61032;50.782;6.818;2022-12-07T03:52:23;17.98;;;9.93;;
72891;SDS011;61032;50.782;6.818;2022-12-07T03:55:56;14.18;;;9.77;;
72891;SDS011;61032;50.782;6.818;2022-12-07T03:56:58;18.40;;;9.90;;
72891;SDS011;61032;50.782;6.818;2022-12-07T03:58:03;16.88;;;9.85;;
72891;SDS011;61032;50.782;6.818;2022-12-07T03:59:07;16.92;;;10.13;;
72891;SDS011;61032;50.782;6.818;2022-12-07T04:00:09;18.73;;;10.38;;
72891;SDS011;61032;50.782;6.818;2022-12-07T04:01:10;23.05;;;11.23;;
72891;SDS011;61032;50.782;6.818;2022-12-07T04:02:12;16.70;;;10.02;;
72891;SDS011;61032;50.782;6.818;2022-12-07T04:04:13;19.13;;;10.38;;
72891;SDS011;61032;50.782;6.818;2022-12-07T04:05:14;17.65;;;10.18;;
72891;SDS011;61032;50.782;6.818;2022-12-07T04:06:14;18.77;;;10.00;;
72891;SDS011;61032;50.782;6.818;2022-12-07T04:07:14;19.92;;;9.80;;
72891;SDS011;61032;50.782;6.818;2022-12-07T04:08:15;17.40;;;10.27;;
72891;SDS011;61032;50.782;6.818;2022-12-07T04:09:15;21.23;;;11.65;;
72891;SDS011;61032;50.782;6.818;2022-12-07T04:10:16;17.00;;;9.95;;
72891;SDS011;61032;50.782;6.818;2022-12-07T04:11:17;17.90;;;10.15;;
72891;SDS011;61032;50.782;6.818;2022-12-07T04:12:17;18.50;;;9.77;;
72891;SDS011;61032;50.782;6.818;2022-12-07T04:13:18;18.58;;;10.27;;
72891;SDS011;61032;50.782;6.818;2022-12-07T04:14:18;16.70;;;10.73;;
72891;SDS011;61032;50.782;6.818;2022-12-07T04:15:18;19.80;;;10.80;;
72891;SDS011;61032;50.782;6.818;2022-12-07T04:16:19;18.70;;;10.35;;
72891;SDS011;61032;50.782;6.818;2022-12-07T04:17:19;18.95;;;10.23;;
72891;SDS011;61032;50.782;6.818;2022-12-07T04:18:19;18.75;;;9.10;;
72891;SDS011;61032;50.782;6.818;2022-12-07T04:19:20;19.27;;;9.88;;
72891;SDS011;61032;50.782;6.818;2022-12-07T04:20:22;17.20;;;9.55;;
72891;SDS011;61032;50.782;6.818;2022-12-07T04:21:23;14.98;;;8.82;;
72891;SDS011;61032;50.782;6.818;2022-12-07T04:22:23;18.02;;;10.05;;
72891;SDS011;61032;50.782;6.818;2022-12-07T04:23:23;15.40;;;9.40;;
72891;SDS011;61032;50.782;6.818;2022-12-07T04:24:24;18.90;;;10.05;;
72891;SDS011;61032;50.782;6.818;2022-12-07T04:25:25;15.65;;;9.60;;
72891;SDS011;61032;50.782;6.818;2022-12-07T04:26:25;18.80;;;9.85;;
72891;SDS011;61032;50.782;6.818;2022-12-07T04:27:25;17.63;;;9.80;;
72891;SDS011;61032;50.782;6.818;2022-12-07T04:28:26;17.45;;;10.23;;
72891;SDS011;61032;50.782;6.818;2022-12-07T04:29:26;18.63;;;10.52;;
72891;SDS011;61032;50.782;6.818;2022-12-07T04:30:27;20.88;;;11.18;;
72891;SDS011;61032;50.782;6.818;2022-12-07T04:31:27;17.38;;;11.18;;
72891;SDS011;61032;50.782;6.818;2022-12-07T04:32:27;16.73;;;10.32;;
72891;SDS011;61032;50.782;6.818;2022-12-07T04:33:28;16.55;;;9.75;;
72891;SDS011;61032;50.782;6.818;2022-12-07T04:34:28;16.15;;;10.35;;
72891;SDS011;61032;50.782;6.818;2022-12-07T04:35:29;19.10;;;10.27;;
72891;SDS011;61032;50.782;6.818;2022-12-07T04:36:29;16.77;;;10.95;;
72891;SDS011;61032;50.782;6.818;2022-12-07T04:37:30;18.23;;;9.65;;
72891;SDS011;61032;50.782;6.818;2022-12-07T04:38:30;16.20;;;9.20;;
72891;SDS011;61032;50.782;6.818;2022-12-07T04:39:31;15.63;;;9.20;;
72891;SDS011;61032;50.782;6.818;2022-12-07T04:40:32;15.25;;;8.95;;
72891;SDS011;61032;50.782;6.818;2022-12-07T04:41:33;16.85;;;9.52;;
72891;SDS011;61032;50.782;6.818;2022-12-07T04:42:33;19.02;;;9.23;;
72891;SDS011;61032;50.782;6.818;2022-12-07T04:43:34;16.33;;;8.52;;
72891;SDS011;61032;50.782;6.818;2022-12-07T04:44:35;19.67;;;9.70;;
72891;SDS011;61032;50.782;6.818;2022-12-07T04:45:35;15.75;;;9.00;;
72891;SDS011;61032;50.782;6.818;2022-12-07T04:46:35;16.77;;;9.20;;
72891;SDS011;61032;50.782;6.818;2022-12-07T04:47:36;15.27;;;8.65;;
72891;SDS011;61032;50.782;6.818;2022-12-07T04:48:36;17.10;;;9.43;;
72891;SDS011;61032;50.782;6.818;2022-12-07T04:49:37;19.05;;;10.48;;
72891;SDS011;61032;50.782;6.818;2022-12-07T04:50:37;14.70;;;8.75;;
72891;SDS011;61032;50.782;6.818;2022-12-07T04:51:38;18.08;;;10.25;;
72891;SDS011;61032;50.782;6.818;2022-12-07T04:52:38;15.95;;;9.77;;
72891;SDS011;61032;50.782;6.818;2022-12-07T04:53:39;18.60;;;9.02;;
72891;SDS011;61032;50.782;6.818;2022-12-07T04:54:39;17.35;;;9.02;;
72891;SDS011;61032;50.782;6.818;2022-12-07T04:55:39;18.90;;;9.38;;
72891;SDS011;61032;50.782;6.818;2022-12-07T04:56:39;16.10;;;9.25;;
72891;SDS011;61032;50.782;6.818;2022-12-07T04:57:40;16.45;;;9.38;;
72891;SDS011;61032;50.782;6.818;2022-12-07T04:58:40;16.45;;;8.88;;
72891;SDS011;61032;50.782;6.818;2022-12-07T04:59:41;15.57;;;8.93;;
72891;SDS011;61032;50.782;6.818;2022-12-07T05:00:41;15.63;;;8.48;;
72891;SDS011;61032;50.782;6.818;2022-12-07T05:01:42;18.52;;;9.80;;
72891;SDS011;61032;50.782;6.818;2022-12-07T05:02:42;13.05;;;8.00;;
72891;SDS011;61032;50.782;6.818;2022-12-07T05:03:42;20.40;;;9.75;;
72891;SDS011;61032;50.782;6.818;2022-12-07T05:04:43;15.75;;;8.30;;
72891;SDS011;61032;50.782;6.818;2022-12-07T05:05:43;17.33;;;9.50;;
72891;SDS011;61032;50.782;6.818;2022-12-07T05:06:43;15.48;;;9.30;;
72891;SDS011;61032;50.782;6.818;2022-12-07T05:07:44;16.38;;;9.32;;
72891;SDS011;61032;50.782;6.818;2022-12-07T05:08:44;14.15;;;9.45;;
72891;SDS011;61032;50.782;6.818;2022-12-07T05:09:45;16.23;;;9.27;;
72891;SDS011;61032;50.782;6.818;2022-12-07T05:10:45;16.55;;;8.02;;
72891;SDS011;61032;50.782;6.818;2022-12-07T05:11:45;14.18;;;8.77;;
72891;SDS011;61032;50.782;6.818;2022-12-07T05:12:46;16.65;;;9.27;;
72891;SDS011;61032;50.782;6.818;2022-12-07T05:13:46;16.50;;;9.15;;
72891;SDS011;61032;50.782;6.818;2022-12-07T05:14:46;15.25;;;8.80;;
72891;SDS011;61032;50.782;6.818;2022-12-07T05:15:47;14.73;;;8.30;;
72891;SDS011;61032;50.782;6.818;2022-12-07T05:16:49;17.20;;;9.50;;
72891;SDS011;61032;50.782;6.818;2022-12-07T05:17:50;16.13;;;9.02;;
72891;SDS011;61032;50.782;6.818;2022-12-07T05:18:52;22.15;;;10.30;;
72891;SDS011;61032;50.782;6.818;2022-12-07T05:19:52;16.35;;;8.45;;
72891;SDS011;61032;50.782;6.818;2022-12-07T05:20:53;14.75;;;9.48;;
72891;SDS011;61032;50.782;6.818;2022-12-07T05:21:53;13.43;;;8.45;;
72891;SDS011;61032;50.782;6.818;2022-12-07T05:22:53;16.83;;;9.10;;
72891;SDS011;61032;50.782;6.818;2022-12-07T05:23:54;16.65;;;9.45;;
72891;SDS011;61032;50.782;6.818;2022-12-07T05:24:54;14.98;;;9.07;;
72891;SDS011;61032;50.782;6.818;2022-12-07T05:25:55;17.38;;;9.05;;
72891;SDS011;61032;50.782;6.818;2022-12-07T05:26:55;16.65;;;8.75;;
72891;SDS011;61032;50.782;6.818;2022-12-07T05:27:56;17.20;;;9.70;;
72891;SDS011;61032;50.782;6.818;2022-12-07T05:28:56;18.23;;;9.35;;
72891;SDS011;61032;50.782;6.818;2022-12-07T05:29:57;17.08;;;9.50;;
72891;SDS011;61032;50.782;6.818;2022-12-07T05:30:57;18.50;;;9.25;;
72891;SDS011;61032;50.782;6.818;2022-12-07T05:31:58;16.23;;;8.57;;
72891;SDS011;61032;50.782;6.818;2022-12-07T05:32:58;16.48;;;8.95;;
72891;SDS011;61032;50.782;6.818;2022-12-07T05:33:58;18.38;;;9.45;;
72891;SDS011;61032;50.782;6.818;2022-12-07T05:34:58;17.42;;;8.60;;
72891;SDS011;61032;50.782;6.818;2022-12-07T05:35:59;23.20;;;10.05;;
72891;SDS011;61032;50.782;6.818;2022-12-07T05:37:05;18.25;;;9.20;;
72891;SDS011;61032;50.782;6.818;2022-12-07T05:38:05;15.07;;;8.93;;
72891;SDS011;61032;50.782;6.818;2022-12-07T05:39:06;15.10;;;7.88;;
72891;SDS011;61032;50.782;6.818;2022-12-07T05:40:07;13.57;;;8.50;;
72891;SDS011;61032;50.782;6.818;2022-12-07T05:41:08;15.98;;;8.88;;
72891;SDS011;61032;50.782;6.818;2022-12-07T05:42:33;17.80;;;8.80;;
72891;SDS011;61032;50.782;6.818;2022-12-07T05:43:34;16.10;;;8.77;;
72891;SDS011;61032;50.782;6.818;2022-12-07T05:44:34;15.20;;;8.90;;
72891;SDS011;61032;50.782;6.818;2022-12-07T05:45:34;14.77;;;8.48;;
72891;SDS011;61032;50.782;6.818;2022-12-07T05:46:35;15.48;;;7.80;;
72891;SDS011;61032;50.782;6.818;2022-12-07T05:47:35;16.33;;;9.73;;
72891;SDS011;61032;50.782;6.818;2022-12-07T05:48:36;18.63;;;9.02;;
72891;SDS011;61032;50.782;6.818;2022-12-07T05:49:36;18.70;;;9.65;;
72891;SDS011;61032;50.782;6.818;2022-12-07T05:50:37;14.60;;;8.50;;
72891;SDS011;61032;50.782;6.818;2022-12-07T05:51:37;16.77;;;8.70;;
72891;SDS011;61032;50.782;6.818;2022-12-07T05:52:38;17.08;;;9.50;;
72891;SDS011;61032;50.782;6.818;2022-12-07T05:53:38;18.27;;;11.02;;
72891;SDS011;61032;50.782;6.818;2022-12-07T05:54:38;17.45;;;9.43;;
72891;SDS011;61032;50.782;6.818;2022-12-07T05:55:38;18.13;;;9.60;;
72891;SDS011;61032;50.782;6.818;2022-12-07T05:56:39;15.48;;;8.15;;
72891;SDS011;61032;50.782;6.818;2022-12-07T05:57:39;16.90;;;9.05;;
72891;SDS011;61032;50.782;6.818;2022-12-07T05:58:39;16.85;;;9.25;;
72891;SDS011;61032;50.782;6.818;2022-12-07T05:59:58;14.52;;;8.68;;
72891;SDS011;61032;50.782;6.818;2022-12-07T06:00:59;18.13;;;9.15;;
72891;SDS011;61032;50.782;6.818;2022-12-07T06:02:00;15.88;;;8.68;;
72891;SDS011;61032;50.782;6.818;2022-12-07T06:03:02;18.08;;;9.25;;
72891;SDS011;61032;50.782;6.818;2022-12-07T06:04:03;17.55;;;9.15;;
72891;SDS011;61032;50.782;6.818;2022-12-07T06:05:03;17.45;;;9.07;;
72891;SDS011;61032;50.782;6.818;2022-12-07T06:06:04;15.90;;;8.52;;
72891;SDS011;61032;50.782;6.818;2022-12-07T06:07:04;18.40;;;8.60;;
72891;SDS011;61032;50.782;6.818;2022-12-07T06:08:05;18.27;;;9.15;;
72891;SDS011;61032;50.782;6.818;2022-12-07T06:09:06;15.45;;;10.25;;
72891;SDS011;61032;50.782;6.818;2022-12-07T06:10:06;17.80;;;9.02;;
72891;SDS011;61032;50.782;6.818;2022-12-07T06:11:07;15.30;;;8.25;;
72891;SDS011;61032;50.782;6.818;2022-12-07T06:12:26;18.23;;;9.55;;
72891;SDS011;61032;50.782;6.818;2022-12-07T06:13:35;16.08;;;8.68;;
72891;SDS011;61032;50.782;6.818;2022-12-07T06:14:35;17.25;;;9.55;;
72891;SDS011;61032;50.782;6.818;2022-12-07T06:15:36;16.75;;;9.40;;
72891;SDS011;61032;50.782;6.818;2022-12-07T06:16:36;18.05;;;9.57;;
72891;SDS011;61032;50.782;6.818;2022-12-07T06:17:37;20.20;;;8.70;;
72891;SDS011;61032;50.782;6.818;2022-12-07T06:18:37;15.32;;;9.30;;
72891;SDS011;61032;50.782;6.818;2022-12-07T06:19:38;16.90;;;9.55;;
72891;SDS011;61032;50.782;6.818;2022-12-07T06:20:38;16.83;;;8.45;;
72891;SDS011;61032;50.782;6.818;2022-12-07T06:21:39;13.38;;;6.95;;
72891;SDS011;61032;50.782;6.818;2022-12-07T06:22:39;13.05;;;7.03;;
72891;SDS011;61032;50.782;6.818;2022-12-07T06:23:40;14.70;;;6.15;;
72891;SDS011;61032;50.782;6.818;2022-12-07T06:24:40;16.17;;;7.65;;
72891;SDS011;61032;50.782;6.818;2022-12-07T06:25:44;12.18;;;6.35;;
72891;SDS011;61032;50.782;6.818;2022-12-07T06:26:45;12.65;;;7.18;;
72891;SDS011;61032;50.782;6.818;2022-12-07T06:27:46;13.98;;;7.03;;
72891;SDS011;61032;50.782;6.818;2022-12-07T06:28:46;10.30;;;7.22;;
72891;SDS011;61032;50.782;6.818;2022-12-07T06:29:46;10.20;;;6.15;;
72891;SDS011;61032;50.782;6.818;2022-12-07T06:30:47;12.70;;;6.57;;
72891;SDS011;61032;50.782;6.818;2022-12-07T06:31:47;9.40;;;5.88;;
72891;SDS011;61032;50.782;6.818;2022-12-07T06:32:47;12.20;;;6.50;;
72891;SDS011;61032;50.782;6.818;2022-12-07T06:33:48;12.48;;;6.68;;
72891;SDS011;61032;50.782;6.818;2022-12-07T06:34:48;11.15;;;5.78;;
72891;SDS011;61032;50.782;6.818;2022-12-07T06:35:48;12.55;;;5.93;;
72891;SDS011;61032;50.782;6.818;2022-12-07T06:36:49;14.70;;;7.18;;
72891;SDS011;61032;50.782;6.818;2022-12-07T06:37:51;14.68;;;6.57;;
72891;SDS011;61032;50.782;6.818;2022-12-07T06:38:52;12.88;;;7.05;;
72891;SDS011;61032;50.782;6.818;2022-12-07T06:39:53;13.02;;;6.95;;
72891;SDS011;61032;50.782;6.818;2022-12-07T06:40:53;13.48;;;7.70;;
72891;SDS011;61032;50.782;6.818;2022-12-07T06:41:53;13.90;;;7.90;;
72891;SDS011;61032;50.782;6.818;2022-12-07T06:42:54;15.52;;;8.02;;
72891;SDS011;61032;50.782;6.818;2022-12-07T06:43:54;16.42;;;8.48;;
72891;SDS011;61032;50.782;6.818;2022-12-07T06:44:55;14.98;;;7.68;;
72891;SDS011;61032;50.782;6.818;2022-12-07T06:45:55;16.60;;;8.77;;